createdAt,value
2023-03-03T00:01:45.620Z,6.50
2023-03-03T00:04:14.077Z,6.60
2023-03-03T00:06:42.613Z,6.60
2023-03-03T00:09:11.106Z,6.50
2023-03-03T00:11:39.894Z,6.50
2023-03-03T00:14:20.561Z,6.50
2023-03-03T00:16:49.979Z,6.50
2023-03-03T00:19:21.693Z,6.50
2023-03-03T00:21:51.645Z,6.50
2023-03-03T00:24:22.906Z,6.50
2023-03-03T00:26:55.586Z,6.50
2023-03-03T00:29:35.908Z,6.50
2023-03-03T00:32:24.361Z,6.50
2023-03-03T00:34:54.236Z,6.50
2023-03-03T00:37:31.867Z,6.50
2023-03-03T00:40:25.538Z,6.50
2023-03-03T00:42:55.798Z,6.50
2023-03-03T00:45:32.832Z,6.50
2023-03-03T00:48:18.583Z,6.50
2023-03-03T00:50:47.298Z,6.50
2023-03-03T00:53:18.215Z,6.50
2023-03-03T00:55:48.064Z,6.50
2023-03-03T00:58:17.126Z,6.50
2023-03-03T01:00:50.439Z,6.50
2023-03-03T01:03:22.942Z,6.50
2023-03-03T01:05:51.899Z,6.50
2023-03-03T01:08:21.100Z,6.50
2023-03-03T01:10:52.044Z,6.50
2023-03-03T01:13:22.419Z,6.50
2023-03-03T01:15:52.616Z,6.50
2023-03-03T01:18:21.301Z,6.50
2023-03-03T01:20:49.891Z,6.50
2023-03-03T01:23:19.328Z,6.50
2023-03-03T01:25:47.956Z,6.50
2023-03-03T01:28:16.437Z,6.50
2023-03-03T01:30:45.004Z,6.50
2023-03-03T01:33:15.953Z,6.40
2023-03-03T01:35:47.336Z,6.40
2023-03-03T01:38:16.210Z,6.50
2023-03-03T01:40:44.830Z,6.40
2023-03-03T01:43:16.732Z,6.40
2023-03-03T01:46:32.985Z,6.40
2023-03-03T01:49:07.115Z,6.40
2023-03-03T01:51:38.973Z,6.40
2023-03-03T01:54:14.115Z,6.40
2023-03-03T01:56:44.150Z,6.40
2023-03-03T01:59:17.628Z,6.40
2023-03-03T02:01:47.769Z,6.40
2023-03-03T02:04:19.073Z,6.40
2023-03-03T02:06:52.144Z,6.40
2023-03-03T02:09:28.941Z,6.40
2023-03-03T02:12:01.486Z,6.40
2023-03-03T02:14:30.074Z,6.40
2023-03-03T02:16:58.915Z,6.40
2023-03-03T02:19:36.635Z,6.40
2023-03-03T02:22:05.506Z,6.40
2023-03-03T02:24:40.665Z,6.40
2023-03-03T02:27:10.739Z,6.40
2023-03-03T02:29:39.515Z,6.40
2023-03-03T02:32:08.775Z,6.40
2023-03-03T02:34:49.670Z,6.40
2023-03-03T02:37:19.077Z,6.40
2023-03-03T02:39:47.826Z,6.40
2023-03-03T02:42:23.348Z,6.40
2023-03-03T02:44:55.993Z,6.40
2023-03-03T02:47:25.285Z,6.40
2023-03-03T02:49:54.045Z,6.40
2023-03-03T02:52:22.566Z,6.40
2023-03-03T02:54:51.522Z,6.30
2023-03-03T02:57:21.454Z,6.40
2023-03-03T02:59:50.352Z,6.40
2023-03-03T03:02:20.458Z,6.30
2023-03-03T03:04:49.161Z,6.40
2023-03-03T03:07:22.828Z,6.30
2023-03-03T03:09:51.482Z,6.40
2023-03-03T03:12:21.844Z,6.30
2023-03-03T03:14:53.756Z,6.30
2023-03-03T03:17:22.473Z,6.40
2023-03-03T03:19:52.802Z,6.30
2023-03-03T03:22:21.918Z,6.30
2023-03-03T03:24:51.174Z,6.30
2023-03-03T03:27:21.197Z,6.30
2023-03-03T03:29:50.711Z,6.30
2023-03-03T03:32:20.632Z,6.30
2023-03-03T03:34:49.742Z,6.30
2023-03-03T03:37:18.425Z,6.30
2023-03-03T03:39:48.155Z,6.30
2023-03-03T03:42:16.758Z,6.30
2023-03-03T03:44:46.885Z,6.30
2023-03-03T03:47:16.608Z,6.30
2023-03-03T03:49:45.676Z,6.30
2023-03-03T03:52:14.696Z,6.30
2023-03-03T03:54:43.790Z,6.30
2023-03-03T03:57:12.295Z,6.30
2023-03-03T03:59:41.327Z,6.30
2023-03-03T04:02:11.399Z,6.30
2023-03-03T04:04:39.949Z,6.30
2023-03-03T04:07:11.439Z,6.30
2023-03-03T04:09:40.970Z,6.30
2023-03-03T04:12:10.135Z,6.30
2023-03-03T04:14:38.885Z,6.30
2023-03-03T04:17:07.564Z,6.30
2023-03-03T04:19:37.774Z,6.20
2023-03-03T04:22:07.592Z,6.20
2023-03-03T04:24:36.109Z,6.30
2023-03-03T04:27:05.943Z,6.20
2023-03-03T04:29:34.904Z,6.20
2023-03-03T04:32:03.481Z,6.20
2023-03-03T04:34:32.212Z,6.30
2023-03-03T04:37:03.121Z,6.30
2023-03-03T04:39:31.707Z,6.20
2023-03-03T04:42:00.268Z,6.20
2023-03-03T04:44:29.145Z,6.20
2023-03-03T04:46:57.714Z,6.20
2023-03-03T04:49:26.858Z,6.20
2023-03-03T04:51:55.503Z,6.20
2023-03-03T04:54:25.642Z,6.20
2023-03-03T04:56:54.328Z,6.20
2023-03-03T04:59:23.558Z,6.20
2023-03-03T05:01:52.292Z,6.20
2023-03-03T05:04:21.001Z,6.20
2023-03-03T05:06:49.482Z,6.20
2023-03-03T05:09:18.005Z,6.20
2023-03-03T05:11:48.021Z,6.20
2023-03-03T05:14:16.433Z,6.20
2023-03-03T05:16:44.966Z,6.20
2023-03-03T05:19:13.712Z,6.20
2023-03-03T05:21:42.726Z,6.20
2023-03-03T05:24:12.245Z,6.20
2023-03-03T05:26:41.012Z,6.10
2023-03-03T05:29:11.082Z,6.10
2023-03-03T05:31:39.625Z,6.20
2023-03-03T05:34:08.157Z,6.10
2023-03-03T05:36:36.781Z,6.10
2023-03-03T05:39:05.696Z,6.20
2023-03-03T05:41:36.919Z,6.10
2023-03-03T05:44:05.653Z,6.10
2023-03-03T05:46:35.642Z,6.10
2023-03-03T05:49:04.134Z,6.10
2023-03-03T05:51:32.713Z,6.10
2023-03-03T05:54:01.622Z,6.10
2023-03-03T05:56:30.126Z,6.10
2023-03-03T05:58:58.708Z,6.10
2023-03-03T06:01:28.626Z,6.10
2023-03-03T06:03:58.527Z,6.10
2023-03-03T06:06:28.274Z,6.10
2023-03-03T06:08:57.364Z,6.10
2023-03-03T06:11:26.098Z,6.10
2023-03-03T06:13:54.889Z,6.10
2023-03-03T06:16:23.469Z,6.10
2023-03-03T06:18:52.095Z,6.10
2023-03-03T06:21:22.143Z,6.10
2023-03-03T06:23:50.672Z,6.10
2023-03-03T06:26:19.178Z,6.00
2023-03-03T06:28:48.163Z,6.00
2023-03-03T06:31:16.707Z,6.10
2023-03-03T06:33:45.262Z,6.00
2023-03-03T06:36:13.935Z,6.00
2023-03-03T06:38:43.921Z,6.00
2023-03-03T06:41:12.828Z,6.00
2023-03-03T06:43:41.385Z,6.00
2023-03-03T06:46:09.987Z,6.00
2023-03-03T06:48:38.521Z,6.00
2023-03-03T06:51:21.508Z,6.00
2023-03-03T06:53:53.953Z,6.00
2023-03-03T06:56:22.525Z,6.00
2023-03-03T06:58:51.553Z,6.00
2023-03-03T07:01:20.119Z,6.00
2023-03-03T07:03:48.744Z,6.00
2023-03-03T07:06:23.552Z,6.00
2023-03-03T07:08:54.228Z,6.00
2023-03-03T07:11:24.380Z,6.00
2023-03-03T07:13:56.015Z,6.00
2023-03-03T07:16:27.516Z,6.00
2023-03-03T07:18:58.468Z,6.00
2023-03-03T07:21:32.314Z,6.00
2023-03-03T07:24:12.038Z,6.00
2023-03-03T07:26:40.604Z,6.00
2023-03-03T07:29:22.532Z,6.00
2023-03-03T07:31:52.239Z,5.90
2023-03-03T07:34:23.697Z,6.00
2023-03-03T07:36:55.124Z,5.90
2023-03-03T07:39:32.881Z,5.90
2023-03-03T07:42:19.439Z,6.00
2023-03-03T07:44:55.508Z,5.90
2023-03-03T07:47:27.052Z,5.90
2023-03-03T07:49:57.343Z,5.90
2023-03-03T07:52:30.096Z,6.00
2023-03-03T07:55:03.844Z,5.90
2023-03-03T07:57:38.114Z,5.90
2023-03-03T08:00:49.788Z,5.90
2023-03-03T08:03:20.497Z,6.00
2023-03-03T08:05:50.508Z,5.90
2023-03-03T08:08:31.420Z,5.90
2023-03-03T08:11:02.410Z,5.90
2023-03-03T08:13:38.886Z,5.90
2023-03-03T08:16:26.668Z,5.90
2023-03-03T08:18:55.683Z,5.90
2023-03-03T08:21:25.595Z,5.90
2023-03-03T08:23:54.725Z,5.90
2023-03-03T08:26:25.682Z,5.90
2023-03-03T08:28:55.663Z,5.90
2023-03-03T08:31:39.858Z,5.90
2023-03-03T08:34:08.649Z,5.90
2023-03-03T08:36:37.344Z,5.90
2023-03-03T08:39:06.318Z,5.90
2023-03-03T08:41:36.398Z,5.90
2023-03-03T08:44:05.167Z,5.90
2023-03-03T08:46:33.786Z,5.90
2023-03-03T08:49:02.503Z,5.90
2023-03-03T08:51:31.193Z,5.90
2023-03-03T08:53:59.743Z,5.90
2023-03-03T08:56:28.319Z,5.90
2023-03-03T08:59:02.906Z,5.80
2023-03-03T09:01:32.712Z,5.80
2023-03-03T09:04:01.697Z,5.80
2023-03-03T09:06:30.387Z,5.90
2023-03-03T09:08:58.985Z,5.90
2023-03-03T09:11:30.064Z,5.90
2023-03-03T09:14:07.947Z,5.90
2023-03-03T09:16:39.784Z,5.80
2023-03-03T09:19:22.715Z,5.80
2023-03-03T09:21:54.929Z,5.80
2023-03-03T09:24:28.329Z,5.80
2023-03-03T09:26:58.625Z,5.80
2023-03-03T09:29:31.103Z,5.80
2023-03-03T09:32:02.408Z,5.80
2023-03-03T09:34:41.011Z,5.80
2023-03-03T09:37:23.270Z,5.80
2023-03-03T09:39:53.627Z,5.80
2023-03-03T09:42:52.518Z,5.80
2023-03-03T09:45:36.232Z,5.80
2023-03-03T09:48:35.121Z,5.80
2023-03-03T09:51:19.759Z,5.80
2023-03-03T09:54:00.758Z,5.80
2023-03-03T09:56:35.860Z,5.80
2023-03-03T09:59:31.740Z,5.80
2023-03-03T10:02:16.545Z,5.80
2023-03-03T10:05:05.355Z,5.80
2023-03-03T10:07:49.651Z,5.80
2023-03-03T10:10:31.060Z,5.80
2023-03-03T10:13:13.511Z,5.80
2023-03-03T10:15:54.561Z,5.80
2023-03-03T10:18:33.737Z,5.80
2023-03-03T10:21:10.324Z,5.80
2023-03-03T10:23:58.826Z,5.80
2023-03-03T10:27:12.984Z,5.80
2023-03-03T10:29:54.603Z,5.80
2023-03-03T10:32:38.185Z,5.80
2023-03-03T10:35:40.916Z,5.80
2023-03-03T10:38:55.660Z,5.80
2023-03-03T10:41:46.204Z,5.80
2023-03-03T10:44:40.780Z,5.80
2023-03-03T10:47:37.500Z,5.80
2023-03-03T10:50:15.852Z,5.80
2023-03-03T10:52:50.469Z,5.80
2023-03-03T10:55:32.457Z,5.80
2023-03-03T10:58:22.875Z,5.80
2023-03-03T11:00:58.496Z,5.80
2023-03-03T11:04:12.922Z,5.70
2023-03-03T11:06:51.206Z,5.70
2023-03-03T11:09:37.805Z,5.80
2023-03-03T11:12:22.493Z,5.70
2023-03-03T11:15:04.710Z,5.70
2023-03-03T11:17:47.133Z,5.70
2023-03-03T11:20:31.726Z,5.70
2023-03-03T11:23:08.870Z,5.70
2023-03-03T11:25:45.831Z,5.70
2023-03-03T11:28:32.891Z,5.70
2023-03-03T11:31:14.911Z,5.70
2023-03-03T11:33:52.195Z,5.70
2023-03-03T11:36:24.583Z,5.70
2023-03-03T11:38:59.045Z,5.70
2023-03-03T11:41:41.077Z,5.70
2023-03-03T11:44:23.463Z,5.70
2023-03-03T11:46:55.072Z,5.70
2023-03-03T11:49:30.172Z,5.70
2023-03-03T11:52:06.852Z,5.70
2023-03-03T11:54:45.682Z,5.70
2023-03-03T11:57:22.795Z,5.70
2023-03-03T11:59:59.773Z,5.70
2023-03-03T12:02:55.510Z,5.70
2023-03-03T12:05:40.430Z,5.70
2023-03-03T12:08:23.148Z,5.70
2023-03-03T12:10:57.674Z,5.70
2023-03-03T12:13:38.177Z,5.70
2023-03-03T12:16:14.099Z,5.70
2023-03-03T12:19:04.124Z,5.70
2023-03-03T12:21:48.099Z,5.70
2023-03-03T12:24:31.688Z,5.70
2023-03-03T12:27:12.777Z,5.70
2023-03-03T12:29:51.380Z,5.70
2023-03-03T12:32:29.541Z,5.70
2023-03-03T12:35:05.263Z,5.70
2023-03-03T12:37:48.241Z,5.70
2023-03-03T12:40:20.851Z,5.70
2023-03-03T12:42:59.612Z,5.70
2023-03-03T12:45:40.512Z,5.70
2023-03-03T12:48:13.619Z,5.70
2023-03-03T12:50:56.126Z,5.70
2023-03-03T12:53:39.751Z,5.70
2023-03-03T12:56:09.999Z,5.70
2023-03-03T12:58:47.062Z,5.70
2023-03-03T13:01:39.415Z,5.70
2023-03-03T13:04:18.458Z,5.70
2023-03-03T13:06:54.440Z,5.70
2023-03-03T13:09:34.590Z,5.70
2023-03-03T13:12:19.479Z,5.70
2023-03-03T13:14:53.875Z,5.70
2023-03-03T13:17:28.855Z,5.70
2023-03-03T13:20:01.530Z,5.70
2023-03-03T13:22:39.221Z,5.70
2023-03-03T13:25:22.228Z,5.70
2023-03-03T13:27:54.726Z,5.70
2023-03-03T13:30:25.901Z,5.70
2023-03-03T13:33:09.862Z,5.70
2023-03-03T13:35:45.080Z,5.70
2023-03-03T13:38:19.435Z,5.70
2023-03-03T13:40:52.168Z,5.70
2023-03-03T13:43:23.934Z,5.70
2023-03-03T13:46:02.063Z,5.70
2023-03-03T13:48:53.523Z,5.70
2023-03-03T13:51:34.154Z,5.70
2023-03-03T13:54:13.206Z,5.70
2023-03-03T13:56:59.950Z,5.70
2023-03-03T13:59:39.841Z,5.70
2023-03-03T14:02:29.934Z,5.70
2023-03-03T14:05:03.388Z,5.70
2023-03-03T14:07:39.171Z,5.70
2023-03-03T14:10:17.037Z,5.70
2023-03-03T14:12:51.586Z,5.70
2023-03-03T14:15:26.270Z,5.70
2023-03-03T14:18:13.361Z,5.70
2023-03-03T14:20:48.388Z,5.70
2023-03-03T14:23:21.884Z,5.70
2023-03-03T14:25:58.364Z,5.70
2023-03-03T14:28:29.141Z,5.70
2023-03-03T14:30:59.068Z,5.70
2023-03-03T14:33:31.627Z,5.70
2023-03-03T14:36:07.858Z,5.70
2023-03-03T14:38:43.223Z,5.70
2023-03-03T14:41:23.232Z,5.70
2023-03-03T14:44:03.899Z,5.70
2023-03-03T14:46:36.661Z,5.70
2023-03-03T14:49:15.613Z,5.70
2023-03-03T14:51:48.200Z,5.70
2023-03-03T14:54:23.764Z,5.70
2023-03-03T14:57:07.185Z,5.60
2023-03-03T14:59:35.872Z,5.70
2023-03-03T15:02:28.745Z,5.70
2023-03-03T15:05:17.487Z,5.70
2023-03-03T15:07:48.754Z,5.70
2023-03-03T15:10:33.335Z,5.70
2023-03-03T15:13:26.392Z,5.70
2023-03-03T15:16:04.376Z,5.70
2023-03-03T15:18:34.632Z,5.70
2023-03-03T15:21:06.716Z,5.70
2023-03-03T15:23:49.274Z,5.70
2023-03-03T15:26:22.220Z,5.60
2023-03-03T15:29:03.290Z,5.70
2023-03-03T15:31:42.930Z,5.70
2023-03-03T15:34:26.135Z,5.70
2023-03-03T15:36:59.600Z,5.70
2023-03-03T15:39:40.329Z,5.70
2023-03-03T15:42:15.394Z,5.70
2023-03-03T15:44:57.494Z,5.70
2023-03-03T15:48:04.096Z,5.70
2023-03-03T15:50:46.806Z,5.60
2023-03-03T15:53:28.600Z,5.70
2023-03-03T15:56:16.930Z,5.70
2023-03-03T15:59:15.354Z,5.70
2023-03-03T16:01:54.169Z,5.70
2023-03-03T16:04:29.492Z,5.70
2023-03-03T16:07:08.567Z,5.70
2023-03-03T16:09:52.044Z,5.70
2023-03-03T16:12:32.899Z,5.70
2023-03-03T16:15:24.130Z,5.70
2023-03-03T16:18:00.176Z,5.70
2023-03-03T16:20:31.983Z,5.70
2023-03-03T16:23:18.492Z,5.70
2023-03-03T16:26:00.469Z,5.70
2023-03-03T16:28:38.718Z,5.70
2023-03-03T16:31:13.023Z,5.70
2023-03-03T16:33:51.366Z,5.70
2023-03-03T16:36:29.473Z,5.60
2023-03-03T16:39:04.693Z,5.60
2023-03-03T16:41:52.398Z,5.70
2023-03-03T16:44:40.868Z,5.60
2023-03-03T16:47:27.007Z,5.70
2023-03-03T16:50:07.415Z,5.60
2023-03-03T16:52:42.405Z,5.60
2023-03-03T16:55:16.471Z,5.60
2023-03-03T16:57:58.266Z,5.70
2023-03-03T17:00:31.664Z,5.70
2023-03-03T17:03:19.597Z,5.60
2023-03-03T17:05:54.536Z,5.70
2023-03-03T17:08:41.719Z,5.70
2023-03-03T17:11:20.728Z,5.70
2023-03-03T17:14:07.297Z,5.70
2023-03-03T17:16:52.607Z,5.70
2023-03-03T17:19:37.690Z,5.60
2023-03-03T17:22:18.236Z,5.70
2023-03-03T17:24:57.523Z,5.60
2023-03-03T17:27:34.294Z,5.70
2023-03-03T17:30:11.746Z,5.70
2023-03-03T17:33:15.202Z,5.70
2023-03-03T17:35:54.144Z,5.60
2023-03-03T17:38:33.362Z,5.60
2023-03-03T17:41:06.821Z,5.70
2023-03-03T17:43:42.965Z,5.70
2023-03-03T17:46:17.534Z,5.60
2023-03-03T17:49:04.521Z,5.70
2023-03-03T17:52:01.299Z,5.70
2023-03-03T17:54:49.111Z,5.60
2023-03-03T17:57:33.298Z,5.60
2023-03-03T18:00:18.821Z,5.60
2023-03-03T18:03:17.646Z,5.60
2023-03-03T18:06:18.983Z,5.70
2023-03-03T18:09:14.116Z,5.70
2023-03-03T18:11:59.448Z,5.60
2023-03-03T18:14:45.517Z,5.60
2023-03-03T18:17:29.466Z,5.60
2023-03-03T18:20:13.913Z,5.60
2023-03-03T18:22:46.906Z,5.60
2023-03-03T18:25:19.023Z,5.60
2023-03-03T18:27:48.681Z,5.70
2023-03-03T18:30:25.973Z,5.60
2023-03-03T18:33:15.657Z,5.60
2023-03-03T18:35:45.510Z,5.60
2023-03-03T18:38:40.074Z,5.60
2023-03-03T18:41:14.197Z,5.60
2023-03-03T18:43:54.861Z,5.60
2023-03-03T18:46:47.624Z,5.60
2023-03-03T18:49:17.926Z,5.60
2023-03-03T18:52:14.290Z,5.60
2023-03-03T18:54:42.958Z,5.60
2023-03-03T18:57:20.157Z,5.60
2023-03-03T18:59:57.005Z,5.60
2023-03-03T19:02:46.361Z,5.60
2023-03-03T19:05:24.514Z,5.60
2023-03-03T19:07:59.140Z,5.60
2023-03-03T19:10:50.972Z,5.60
2023-03-03T19:13:45.837Z,5.60
2023-03-03T19:16:36.757Z,5.60
2023-03-03T19:19:15.110Z,5.60
2023-03-03T19:21:48.092Z,5.60
2023-03-03T19:24:35.362Z,5.60
2023-03-03T19:27:30.272Z,5.60
2023-03-03T19:30:26.507Z,5.60
2023-03-03T19:33:38.436Z,5.60
2023-03-03T19:36:22.592Z,5.60
2023-03-03T19:39:07.838Z,5.60
2023-03-03T19:41:49.969Z,5.60
2023-03-03T19:44:36.500Z,5.60
2023-03-03T19:47:12.855Z,5.60
2023-03-03T19:49:58.298Z,5.60
2023-03-03T19:52:36.712Z,5.60
2023-03-03T19:55:23.345Z,5.60
2023-03-03T19:58:03.194Z,5.60
2023-03-03T20:00:39.517Z,5.60
2023-03-03T20:04:05.281Z,5.60
2023-03-03T20:06:46.672Z,5.60
2023-03-03T20:09:27.825Z,5.60
2023-03-03T20:12:34.428Z,5.60
2023-03-03T20:15:10.321Z,5.60
2023-03-03T20:17:55.695Z,5.60
2023-03-03T20:20:47.049Z,5.60
2023-03-03T20:23:23.161Z,5.60
2023-03-03T20:25:57.733Z,5.60
2023-03-03T20:29:07.865Z,5.60
2023-03-03T20:31:45.916Z,5.60
2023-03-03T20:34:24.024Z,5.60
2023-03-03T20:37:01.650Z,5.60
2023-03-03T20:39:44.681Z,5.60
2023-03-03T20:42:25.279Z,5.60
2023-03-03T20:45:08.677Z,5.60
2023-03-03T20:47:45.966Z,5.60
2023-03-03T20:50:25.229Z,5.60
2023-03-03T20:53:07.713Z,5.60
2023-03-03T20:55:49.661Z,5.60
2023-03-03T20:58:24.792Z,5.60
2023-03-03T21:01:04.281Z,5.60
2023-03-03T21:03:36.488Z,5.60
2023-03-03T21:06:09.159Z,5.60
2023-03-03T21:08:47.248Z,5.60
2023-03-03T21:11:18.824Z,5.60
2023-03-03T21:13:49.470Z,5.60
2023-03-03T21:16:32.127Z,5.60
2023-03-03T21:19:03.170Z,5.60
2023-03-03T21:21:33.525Z,5.60
2023-03-03T21:24:02.240Z,5.60
2023-03-03T21:26:50.127Z,5.60
2023-03-03T21:29:21.160Z,5.50
2023-03-03T21:31:50.702Z,5.60
2023-03-03T21:34:21.020Z,5.60
2023-03-03T21:36:50.756Z,5.60
2023-03-03T21:39:25.882Z,5.50
2023-03-03T21:41:58.536Z,5.60
2023-03-03T21:44:32.565Z,5.50
2023-03-03T21:47:01.124Z,5.50
2023-03-03T21:49:29.924Z,5.50
2023-03-03T21:51:58.857Z,5.50
2023-03-03T21:54:27.393Z,5.50
2023-03-03T21:56:57.306Z,5.50
2023-03-03T21:59:25.987Z,5.50
2023-03-03T22:01:54.649Z,5.50
2023-03-03T22:04:23.299Z,5.50
2023-03-03T22:06:52.806Z,5.50
2023-03-03T22:09:21.503Z,5.50
2023-03-03T22:11:50.460Z,5.50
2023-03-03T22:14:20.423Z,5.50
2023-03-03T22:16:48.980Z,5.50
2023-03-03T22:19:17.507Z,5.50
2023-03-03T22:21:46.807Z,5.50
2023-03-03T22:24:15.328Z,5.50
2023-03-03T22:26:44.035Z,5.50
2023-03-03T22:29:12.790Z,5.50
2023-03-03T22:31:42.875Z,5.50
2023-03-03T22:34:14.711Z,5.50
2023-03-03T22:36:43.242Z,5.50
2023-03-03T22:39:11.745Z,5.50
2023-03-03T22:41:40.444Z,5.50
2023-03-03T22:44:09.007Z,5.50
2023-03-03T22:46:37.641Z,5.50
2023-03-03T22:49:07.674Z,5.50
2023-03-03T22:51:36.192Z,5.50
2023-03-03T22:54:05.148Z,5.50
2023-03-03T22:56:33.732Z,5.50
2023-03-03T22:59:02.263Z,5.50
2023-03-03T23:01:30.886Z,5.50
2023-03-03T23:03:59.492Z,5.50
2023-03-03T23:06:29.417Z,5.50
2023-03-03T23:08:58.012Z,5.50
2023-03-03T23:11:27.702Z,5.50
2023-03-03T23:13:56.275Z,5.50
2023-03-03T23:16:24.791Z,5.50
2023-03-03T23:18:54.418Z,5.50
2023-03-03T23:21:22.903Z,5.50
2023-03-03T23:23:52.830Z,5.50
2023-03-03T23:26:21.317Z,5.50
2023-03-03T23:28:49.806Z,5.50
2023-03-03T23:31:18.457Z,5.50
2023-03-03T23:33:47.066Z,5.50
2023-03-03T23:36:15.522Z,5.50
2023-03-03T23:38:44.056Z,5.50
2023-03-03T23:41:14.034Z,5.50
2023-03-03T23:43:42.565Z,5.50
2023-03-03T23:46:11.030Z,5.50
2023-03-03T23:48:39.618Z,5.50
2023-03-03T23:51:08.100Z,5.50
2023-03-03T23:53:36.662Z,5.50
2023-03-03T23:56:05.466Z,5.50
2023-03-03T23:58:35.531Z,5.50
